Time;durP1;ratioP1;P1;durP2;ratioP2;P2;SDS_P1;SDS_P2;PMS_P1;PMS_P2;Temp;Humidity;BMP_temperature;BMP_pressure;BME280_temperature;BME280_humidity;BME280_pressure;Samples;Min_cycle;Max_cycle;Signal;HPM_P1;HPM_P2
2022/06/14 00:01:57;;;;;;;15.63;14.10;;;;;;;21.28;100.00;99184.75;5110857;28;20229;-63
2022/06/14 00:04:24;;;;;;;17.95;14.48;;;;;;;21.28;100.00;99180.31;5110707;28;20198;-57
2022/06/14 00:06:51;;;;;;;16.30;14.68;;;;;;;21.23;100.00;99173.69;5110493;28;20686;-56
2022/06/14 00:09:18;;;;;;;21.05;14.82;;;;;;;21.23;100.00;99174.53;5110698;28;20200;-57
2022/06/14 00:11:46;;;;;;;16.25;14.32;;;;;;;21.20;100.00;99177.44;5110420;28;20572;-64
2022/06/14 00:14:13;;;;;;;18.42;16.58;;;;;;;21.15;100.00;99176.91;5110548;28;20198;-58
2022/06/14 00:16:40;;;;;;;16.48;14.80;;;;;;;21.17;100.00;99180.25;5107754;28;20218;-57
2022/06/14 00:19:09;;;;;;;17.08;14.23;;;;;;;21.20;100.00;99177.44;5112440;28;20209;-59
2022/06/14 00:21:37;;;;;;;17.15;14.93;;;;;;;21.17;100.00;99184.69;5114700;28;20277;-57
2022/06/14 00:24:05;;;;;;;16.85;14.38;;;;;;;21.13;100.00;99177.97;5114583;28;20191;-64
2022/06/14 00:26:32;;;;;;;18.27;14.63;;;;;;;21.15;100.00;99181.34;5114867;28;20202;-57
2022/06/14 00:28:59;;;;;;;17.45;15.35;;;;;;;21.09;100.00;99181.81;5114001;28;20193;-58
2022/06/14 00:31:27;;;;;;;17.77;15.45;;;;;;;21.08;100.00;99173.06;5114408;28;20194;-57
2022/06/14 00:33:55;;;;;;;17.00;14.75;;;;;;;20.97;100.00;99184.44;5113758;28;20197;-58
2022/06/14 00:36:28;;;;;;;16.75;14.40;;;;;;;20.97;100.00;99180.97;5113964;28;20209;-57
2022/06/14 00:38:55;;;;;;;15.82;14.45;;;;;;;20.90;100.00;99185.00;5113615;28;20202;-56
2022/06/14 00:41:37;;;;;;;16.85;15.25;;;;;;;21.00;100.00;99180.72;5114088;28;20650;-66
2022/06/14 00:44:06;;;;;;;17.08;14.38;;;;;;;20.87;100.00;99170.28;5111641;28;20191;-66
2022/06/14 00:46:38;;;;;;;15.57;13.98;;;;;;;20.92;100.00;99188.38;5114090;28;20198;-57
2022/06/14 00:49:12;;;;;;;17.48;13.60;;;;;;;20.86;100.00;99192.34;5114161;28;20285;-58
2022/06/14 00:51:51;;;;;;;16.92;14.05;;;;;;;20.79;100.00;99185.84;5114339;28;20194;-65
2022/06/14 00:54:23;;;;;;;15.60;14.10;;;;;;;20.80;100.00;99194.59;5114229;28;20198;-64
2022/06/14 00:56:56;;;;;;;16.92;13.98;;;;;;;20.89;100.00;99193.88;5113963;28;20234;-62
2022/06/14 00:59:29;;;;;;;15.15;13.95;;;;;;;20.91;100.00;99198.09;5114215;28;20667;-63
2022/06/14 01:02:04;;;;;;;15.32;13.93;;;;;;;20.81;100.00;99191.00;5113853;28;20198;-63
2022/06/14 01:04:32;;;;;;;14.85;13.77;;;;;;;20.71;100.00;99198.78;5114013;28;20190;-63
2022/06/14 01:07:07;;;;;;;20.70;15.20;;;;;;;20.59;100.00;99184.72;5114031;28;20739;-63
2022/06/14 01:09:39;;;;;;;19.95;14.07;;;;;;;20.68;100.00;99204.25;5113794;28;20284;-64
2022/06/14 01:12:10;;;;;;;16.83;13.88;;;;;;;20.51;100.00;99180.97;5114226;28;20198;-62
2022/06/14 01:14:43;;;;;;;16.10;14.43;;;;;;;20.50;100.00;99187.19;5113952;28;20277;-61
2022/06/14 01:17:12;;;;;;;15.50;14.18;;;;;;;20.55;100.00;99191.16;5113597;28;20295;-62
2022/06/14 01:19:40;;;;;;;17.77;15.93;;;;;;;20.51;100.00;99184.44;5113639;28;20281;-62
2022/06/14 01:22:24;;;;;;;14.98;13.68;;;;;;;20.37;100.00;99175.88;5113421;28;20198;-57
2022/06/14 01:24:50;;;;;;;15.75;14.15;;;;;;;20.38;100.00;99175.78;5113462;28;20245;-57
2022/06/14 01:27:20;;;;;;;14.88;13.45;;;;;;;20.26;100.00;99174.84;5113462;28;20198;-57
2022/06/14 01:29:51;;;;;;;15.27;13.88;;;;;;;20.27;100.00;99171.25;5112530;28;20205;-57
2022/06/14 01:32:20;;;;;;;17.42;14.73;;;;;;;20.25;100.00;99173.16;5113307;28;20213;-57
2022/06/14 01:34:51;;;;;;;15.50;13.77;;;;;;;20.22;100.00;99172.53;5113334;28;20198;-57
2022/06/14 01:37:18;;;;;;;16.65;14.85;;;;;;;20.25;100.00;99177.59;5113042;28;20293;-58
2022/06/14 01:39:46;;;;;;;17.08;15.45;;;;;;;20.20;100.00;99185.81;5113390;28;20201;-58
2022/06/14 01:42:24;;;;;;;15.57;14.02;;;;;;;20.21;100.00;99190.16;5113195;28;20271;-64
2022/06/14 01:45:01;;;;;;;15.40;13.90;;;;;;;20.12;100.00;99193.47;5113275;28;20615;-64
2022/06/14 01:47:35;;;;;;;17.20;14.00;;;;;;;20.05;100.00;99192.25;5113032;28;20191;-64
2022/06/14 01:53:14;;;;;;;14.45;13.15;;;;;;;19.96;100.00;99199.97;5112752;28;20690;-65
2022/06/14 01:55:46;;;;;;;14.88;13.32;;;;;;;19.96;100.00;99199.97;5112688;28;20226;-65
2022/06/14 01:58:23;;;;;;;16.27;13.27;;;;;;;20.02;100.00;99196.88;5112685;28;20236;-64
2022/06/14 02:00:55;;;;;;;16.98;13.80;;;;;;;20.01;100.00;99203.94;5112990;28;20234;-64
2022/06/14 02:06:21;;;;;;;14.70;13.27;;;;;;;20.03;100.00;99209.09;5112633;28;20205;-62
2022/06/14 02:08:55;;;;;;;14.40;13.05;;;;;;;19.97;100.00;99213.03;5112651;28;20300;-63
2022/06/14 02:11:28;;;;;;;14.88;13.60;;;;;;;19.91;100.00;99214.31;5112250;28;20205;-63
2022/06/14 02:14:06;;;;;;;14.57;13.23;;;;;;;19.85;100.00;99209.50;5112651;28;20191;-63
2022/06/14 02:16:39;;;;;;;16.45;14.57;;;;;;;19.79;100.00;99211.69;5113145;28;20259;-63
2022/06/14 02:19:10;;;;;;;15.10;13.70;;;;;;;19.77;100.00;99221.50;5112253;28;20305;-62
2022/06/14 02:21:42;;;;;;;15.90;14.27;;;;;;;19.78;100.00;99217.91;5112379;28;20265;-57
2022/06/14 02:24:13;;;;;;;15.95;13.38;;;;;;;19.69;100.00;99201.00;5112088;28;20204;-63
2022/06/14 02:26:47;;;;;;;15.48;13.93;;;;;;;19.86;100.00;99218.22;5112260;28;20191;-63
2022/06/14 02:29:19;;;;;;;15.30;13.73;;;;;;;19.86;100.00;99220.88;5112159;28;20194;-64
2022/06/14 02:31:53;;;;;;;15.25;13.80;;;;;;;19.85;100.00;99219.19;5112067;28;20191;-56
2022/06/14 02:34:26;;;;;;;19.00;13.43;;;;;;;19.80;100.00;99218.66;5112225;28;20191;-56
2022/06/14 02:37:10;;;;;;;18.45;13.55;;;;;;;19.79;100.00;99216.97;5112213;28;20198;-56
2022/06/14 02:39:41;;;;;;;15.38;13.75;;;;;;;19.75;100.00;99218.16;5111805;28;20195;-56
2022/06/14 02:42:19;;;;;;;15.45;14.00;;;;;;;19.82;100.00;99212.34;5111796;28;20202;-56
2022/06/14 02:44:52;;;;;;;16.45;14.80;;;;;;;19.84;100.00;99212.22;5112163;28;20198;-56
2022/06/14 02:47:23;;;;;;;14.32;12.93;;;;;;;19.82;100.00;99200.97;5112136;28;20194;-57
2022/06/14 02:49:55;;;;;;;14.73;13.15;;;;;;;20.00;100.00;99210.16;5111889;28;20581;-57
2022/06/14 02:52:29;;;;;;;21.75;14.52;;;;;;;19.96;100.00;99213.16;5111618;28;20201;-57
2022/06/14 02:55:03;;;;;;;19.95;14.07;;;;;;;20.04;100.00;99208.16;5111754;28;20669;-63
2022/06/14 02:57:37;;;;;;;16.63;14.98;;;;;;;20.05;100.00;99210.69;5111751;28;20222;-64
2022/06/14 03:00:13;;;;;;;16.60;14.90;;;;;;;19.97;100.00;99212.19;5111521;28;20730;-63
2022/06/14 03:02:47;;;;;;;17.63;14.77;;;;;;;19.98;100.00;99204.16;5111156;28;20197;-57
2022/06/14 03:05:19;;;;;;;15.82;14.30;;;;;;;20.17;100.00;99212.44;5111391;28;20277;-58
2022/06/14 03:07:53;;;;;;;15.15;13.43;;;;;;;20.20;100.00;99209.53;5111437;28;20194;-56
2022/06/14 03:10:20;;;;;;;14.75;13.27;;;;;;;20.19;100.00;99210.53;5110366;28;20587;-57
2022/06/14 03:12:58;;;;;;;17.15;14.30;;;;;;;20.22;100.00;99205.00;5106939;27;20190;-57
2022/06/14 03:15:32;;;;;;;17.20;14.35;;;;;;;20.21;100.00;99203.31;5105756;28;20198;-54
2022/06/14 03:18:11;;;;;;;19.02;14.02;;;;;;;20.37;100.00;99207.50;5108418;28;20213;-58
2022/06/14 03:20:45;;;;;;;16.33;14.40;;;;;;;20.36;100.00;99208.47;5108934;28;20305;-58
2022/06/14 03:23:20;;;;;;;15.73;14.27;;;;;;;20.23;100.00;99206.69;5107495;28;20190;-58
2022/06/14 03:25:51;;;;;;;16.73;15.02;;;;;;;20.20;100.00;99183.19;5109937;28;20714;-58
2022/06/14 03:28:25;;;;;;;17.25;15.45;;;;;;;20.23;100.00;99193.53;5110064;28;20281;-58
2022/06/14 03:30:59;;;;;;;18.42;15.07;;;;;;;20.23;100.00;99201.44;5110213;28;20222;-57
2022/06/14 03:33:35;;;;;;;18.65;15.40;;;;;;;20.30;100.00;99200.03;5110310;28;20277;-58
2022/06/14 03:36:03;;;;;;;16.52;14.75;;;;;;;20.45;100.00;99195.44;5103770;28;20607;-61
2022/06/14 03:38:36;;;;;;;17.65;14.50;;;;;;;20.64;100.00;99200.19;5097616;28;20275;-63
2022/06/14 03:41:04;;;;;;;15.10;13.77;;;;;;;20.77;100.00;99195.66;5098552;28;20202;-64
2022/06/14 03:43:33;;;;;;;16.05;14.35;;;;;;;20.83;100.00;99195.22;5089960;28;20191;-59
2022/06/14 03:46:11;;;;;;;17.40;15.70;;;;;;;20.94;100.00;99200.50;5103075;28;20206;-65
2022/06/14 03:48:47;;;;;;;16.60;14.90;;;;;;;21.19;100.00;99201.31;5108429;28;20190;-65
2022/06/14 03:51:23;;;;;;;16.30;14.10;;;;;;;21.48;100.00;99191.09;5107072;28;20194;-64
2022/06/14 03:54:05;;;;;;;15.25;13.68;;;;;;;22.58;100.00;99204.16;5106821;28;20202;-65
2022/06/14 03:56:48;;;;;;;13.90;12.90;;;;;;;24.09;99.36;99198.13;5108749;28;20329;-65
2022/06/14 03:59:33;;;;;;;15.00;12.65;;;;;;;25.26;90.39;99192.63;5108231;28;20226;-65
2022/06/14 04:02:06;;;;;;;14.93;12.52;;;;;;;26.44;83.64;99216.66;5106309;28;20187;-64
2022/06/14 04:04:45;;;;;;;13.10;11.80;;;;;;;27.40;78.34;99218.41;5106666;28;20199;-64
2022/06/14 04:07:22;;;;;;;17.02;12.60;;;;;;;28.12;74.01;99230.38;5108361;28;20226;-63
2022/06/14 04:09:57;;;;;;;17.73;12.30;;;;;;;29.26;69.74;99233.97;5108489;28;20204;-63
2022/06/14 04:12:34;;;;;;;13.38;12.10;;;;;;;29.89;66.55;99238.50;5108762;28;20198;-63
2022/06/14 04:15:16;;;;;;;17.13;13.00;;;;;;;30.49;64.08;99242.34;5106651;28;20190;-64
2022/06/14 04:17:51;;;;;;;14.88;12.30;;;;;;;30.84;62.72;99246.31;5106008;28;20691;-64
2022/06/14 04:20:25;;;;;;;18.63;11.50;;;;;;;31.30;60.76;99252.44;5105475;28;20585;-63
2022/06/14 04:23:10;;;;;;;12.85;11.25;;;;;;;31.67;59.12;99247.06;5109019;28;20273;-58
2022/06/14 04:25:44;;;;;;;13.95;11.00;;;;;;;32.25;57.27;99247.19;5108741;28;20202;-59
2022/06/14 04:28:19;;;;;;;14.45;11.55;;;;;;;32.83;56.24;99245.31;5099466;28;20231;-58
2022/06/14 04:30:54;;;;;;;17.35;10.65;;;;;;;33.37;54.39;99259.00;5099560;28;20614;-57
2022/06/14 04:33:27;;;;;;;11.98;10.90;;;;;;;34.19;52.22;99253.66;5088242;28;20230;-58
2022/06/14 04:35:59;;;;;;;12.57;10.48;;;;;;;34.92;49.56;99266.28;5108065;28;20212;-58
2022/06/14 04:38:31;;;;;;;13.43;10.20;;;;;;;34.98;49.52;99264.66;5108589;28;20222;-58
2022/06/14 04:41:06;;;;;;;11.82;10.68;;;;;;;35.18;49.05;99272.72;5104545;28;20202;-61
2022/06/14 04:43:39;;;;;;;12.02;10.18;;;;;;;35.79;47.24;99265.19;5100704;28;20647;-62
2022/06/14 04:46:14;;;;;;;11.02;10.13;;;;;;;36.46;46.17;99279.28;5105297;28;20682;-63
2022/06/14 04:48:47;;;;;;;11.85;10.70;;;;;;;36.17;46.68;99280.63;5106169;28;20187;-65
2022/06/14 04:51:21;;;;;;;11.95;10.85;;;;;;;36.16;46.35;99278.97;5107618;28;20283;-63
2022/06/14 04:53:54;;;;;;;11.60;10.48;;;;;;;36.65;45.61;99281.03;5107851;28;20205;-62
2022/06/14 04:56:24;;;;;;;11.85;10.73;;;;;;;36.82;44.70;99278.63;5105489;28;20233;-61
2022/06/14 04:58:57;;;;;;;10.73;9.95;;;;;;;36.94;44.85;99277.72;5107845;28;20206;-62
2022/06/14 05:01:31;;;;;;;11.45;10.45;;;;;;;37.39;43.53;99281.09;5097535;28;20198;-62
2022/06/14 05:04:02;;;;;;;13.40;12.35;;;;;;;37.55;43.84;99279.69;5108036;28;20192;-63
2022/06/14 05:06:34;;;;;;;16.40;13.60;;;;;;;37.56;43.50;99284.06;5110666;28;20281;-62
2022/06/14 05:09:07;;;;;;;14.80;13.38;;;;;;;37.60;43.66;99287.13;5111528;28;20205;-63
2022/06/14 05:11:42;;;;;;;16.52;12.32;;;;;;;37.96;41.75;99286.34;5112396;28;20194;-63
2022/06/14 05:14:14;;;;;;;10.80;9.55;;;;;;;38.31;41.07;99278.44;5112567;28;20198;-62
2022/06/14 05:16:46;;;;;;;15.05;13.82;;;;;;;38.64;40.61;99295.09;5112864;28;20198;-63
2022/06/14 05:19:17;;;;;;;13.57;12.18;;;;;;;39.04;39.33;99295.34;5112381;28;20226;-63
2022/06/14 05:21:51;;;;;;;11.73;10.82;;;;;;;39.26;38.35;99292.06;5111153;28;20198;-61
2022/06/14 05:24:19;;;;;;;18.48;13.52;;;;;;;39.20;38.50;99286.50;5113295;28;20667;-61
2022/06/14 05:27:07;;;;;;;11.18;10.18;;;;;;;38.99;38.51;99305.25;5113633;28;20190;-61
2022/06/14 05:29:41;;;;;;;9.80;8.95;;;;;;;39.14;38.27;99300.19;5113610;28;20199;-61
2022/06/14 05:32:20;;;;;;;11.85;9.20;;;;;;;39.29;37.46;99308.69;5113307;28;20193;-61
2022/06/14 05:34:58;;;;;;;12.30;11.00;;;;;;;39.62;37.29;99307.34;5113238;28;20190;-60
2022/06/14 05:37:34;;;;;;;10.25;9.45;;;;;;;39.33;36.71;99303.63;5113380;28;20704;-62
2022/06/14 05:40:09;;;;;;;9.77;8.88;;;;;;;38.96;37.27;99306.50;5099253;28;20226;-62
2022/06/14 05:42:42;;;;;;;10.65;9.38;;;;;;;39.33;36.93;99309.88;5092610;28;20193;-61
2022/06/14 05:45:15;;;;;;;10.30;9.35;;;;;;;39.33;36.91;99315.31;5093101;28;20194;-63
2022/06/14 05:47:48;;;;;;;10.02;9.23;;;;;;;39.40;37.09;99299.72;5092904;28;20550;-63
2022/06/14 05:50:18;;;;;;;9.98;9.18;;;;;;;39.53;35.73;99321.25;5092545;28;20191;-62
2022/06/14 05:52:51;;;;;;;10.20;9.25;;;;;;;38.70;37.17;99315.88;5092462;28;20195;-64
2022/06/14 05:55:24;;;;;;;9.23;8.13;;;;;;;38.45;37.05;99310.56;5092339;28;20681;-64
2022/06/14 05:57:56;;;;;;;11.07;9.45;;;;;;;38.29;38.21;99318.50;5092418;28;20194;-63
2022/06/14 06:00:30;;;;;;;9.25;8.52;;;;;;;38.20;37.88;99314.44;5092277;28;20224;-63
2022/06/14 06:03:06;;;;;;;9.48;8.23;;;;;;;37.32;39.00;99310.13;5092258;28;20197;-60
2022/06/14 06:05:37;;;;;;;10.85;9.93;;;;;;;36.90;40.05;99308.16;5092373;28;20263;-61
2022/06/14 06:08:10;;;;;;;10.90;9.57;;;;;;;37.12;39.80;99306.72;5092179;28;20190;-61
2022/06/14 06:10:41;;;;;;;13.15;7.95;;;;;;;37.06;40.03;99304.88;5092606;28;20201;-60
2022/06/14 06:13:14;;;;;;;8.35;7.80;;;;;;;37.21;39.83;99313.56;5110352;28;20194;-61
2022/06/14 06:15:46;;;;;;;9.65;8.55;;;;;;;37.33;39.97;99308.25;5110939;28;20198;-61
2022/06/14 06:18:21;;;;;;;8.77;7.93;;;;;;;37.11;39.45;99315.91;5110672;28;20193;-61
2022/06/14 06:20:54;;;;;;;8.80;8.10;;;;;;;36.29;41.12;99311.38;5108645;28;20198;-61
2022/06/14 06:23:27;;;;;;;10.18;9.05;;;;;;;36.57;42.15;99311.84;5105847;28;20275;-61
2022/06/14 06:25:55;;;;;;;10.05;9.32;;;;;;;36.32;41.57;99311.78;5108922;28;20199;-61
2022/06/14 06:28:26;;;;;;;14.13;8.65;;;;;;;35.90;42.01;99317.72;5112099;28;20187;-61
2022/06/14 06:30:57;;;;;;;8.43;7.78;;;;;;;35.94;42.21;99314.38;5112115;28;20675;-61
2022/06/14 06:33:28;;;;;;;12.85;11.77;;;;;;;35.96;42.68;99306.91;5112102;28;20196;-61
2022/06/14 06:36:10;;;;;;;9.75;8.57;;;;;;;35.82;43.04;99310.69;5112279;28;20195;-61
2022/06/14 06:38:47;;;;;;;9.30;8.60;;;;;;;35.45;43.68;99297.84;5111921;28;20718;-61
2022/06/14 06:44:07;;;;;;;11.23;9.00;;;;;;;34.80;46.08;99307.56;5111985;28;20590;-61
2022/06/14 06:46:39;;;;;;;9.80;9.20;;;;;;;34.34;46.79;99289.38;5112128;28;20196;-61
2022/06/14 06:49:10;;;;;;;9.95;9.13;;;;;;;34.35;47.56;99300.97;5112227;28;20191;-61
2022/06/14 06:51:44;;;;;;;9.70;8.77;;;;;;;33.63;48.46;99296.88;5111951;28;20198;-61
2022/06/14 06:54:20;;;;;;;9.05;8.45;;;;;;;33.64;49.46;99303.06;5111453;28;20632;-61
2022/06/14 06:56:51;;;;;;;11.30;10.20;;;;;;;33.80;49.82;99298.22;5110740;28;20679;-61
2022/06/14 06:59:27;;;;;;;11.05;9.77;;;;;;;33.80;49.97;99298.22;5108153;28;20214;-61
2022/06/14 07:01:58;;;;;;;11.50;10.05;;;;;;;33.91;49.23;99296.84;5110870;28;20202;-60
2022/06/14 07:07:14;;;;;;;10.18;8.75;;;;;;;33.82;49.79;99300.72;5109773;28;20190;-61
2022/06/14 07:09:47;;;;;;;10.70;9.70;;;;;;;33.77;50.98;99303.16;5110238;28;20298;-61
2022/06/14 07:12:17;;;;;;;10.13;9.40;;;;;;;34.13;50.14;99308.34;5108050;28;20273;-64
2022/06/14 07:14:51;;;;;;;10.30;9.60;;;;;;;34.80;48.55;99312.94;5110210;28;20202;-59
2022/06/14 07:17:25;;;;;;;11.10;10.07;;;;;;;35.19;47.62;99307.59;5110518;28;20196;-62
2022/06/14 07:19:57;;;;;;;9.60;8.93;;;;;;;35.05;48.01;99303.22;5111182;28;20309;-61
2022/06/14 07:22:30;;;;;;;9.60;8.73;;;;;;;35.12;47.61;99309.44;5111148;28;20197;-60
2022/06/14 07:25:01;;;;;;;9.07;8.38;;;;;;;35.10;47.25;99300.75;5111057;28;20215;-60
2022/06/14 07:27:33;;;;;;;8.95;8.35;;;;;;;35.29;47.84;99307.22;5109916;28;20198;-64
2022/06/14 07:30:06;;;;;;;10.15;9.40;;;;;;;35.27;47.74;99303.88;5108155;28;20218;-64
2022/06/14 07:32:39;;;;;;;10.07;9.07;;;;;;;35.11;47.38;99302.38;5111165;28;20277;-64
2022/06/14 07:35:08;;;;;;;10.57;9.50;;;;;;;35.35;47.67;99302.84;5111140;28;20205;-64
2022/06/14 07:37:42;;;;;;;10.20;9.02;;;;;;;35.44;46.65;99312.41;5111361;28;20225;-64
2022/06/14 07:40:16;;;;;;;10.00;9.20;;;;;;;35.42;47.34;99309.91;5110785;28;20233;-64
2022/06/14 07:42:51;;;;;;;10.25;9.45;;;;;;;35.50;46.48;99309.69;5110952;28;20314;-64
2022/06/14 07:45:23;;;;;;;10.38;9.27;;;;;;;35.46;46.21;99307.59;5110786;28;20285;-64
2022/06/14 07:47:56;;;;;;;9.57;8.80;;;;;;;35.80;45.72;99310.06;5110982;28;20671;-65
2022/06/14 07:50:34;;;;;;;7.78;7.20;;;;;;;35.66;46.14;99311.94;5110659;28;20588;-65
2022/06/14 07:53:08;;;;;;;8.77;8.05;;;;;;;35.29;46.97;99304.50;5111079;28;20281;-65
2022/06/14 07:55:41;;;;;;;9.02;7.05;;;;;;;35.56;46.30;99300.72;5110811;28;20230;-65
2022/06/14 07:58:14;;;;;;;10.27;9.35;;;;;;;36.18;45.71;99315.56;5110755;28;20205;-65
2022/06/14 08:03:36;;;;;;;12.70;11.32;;;;;;;36.40;44.46;99302.59;5110836;28;20272;-64
2022/06/14 08:06:09;;;;;;;9.77;8.60;;;;;;;36.55;44.18;99308.56;5110547;28;20198;-64
2022/06/14 08:08:41;;;;;;;12.40;11.38;;;;;;;36.38;44.78;99305.50;5110794;28;20206;-64
2022/06/14 08:11:14;;;;;;;9.20;8.10;;;;;;;36.48;45.11;99299.63;5110646;28;20713;-64
2022/06/14 08:13:45;;;;;;;9.65;8.88;;;;;;;36.93;43.41;99303.09;5111224;28;20624;-63
2022/06/14 08:16:13;;;;;;;9.50;8.80;;;;;;;37.56;42.45;99291.38;5110663;28;20593;-64
2022/06/14 08:18:47;;;;;;;7.93;7.28;;;;;;;37.70;41.47;99303.75;5110701;28;20226;-64
2022/06/14 08:21:23;;;;;;;7.80;7.05;;;;;;;37.61;42.27;99302.34;5110395;28;20567;-64
2022/06/14 08:23:53;;;;;;;8.18;7.40;;;;;;;37.52;41.44;99303.69;5110628;28;20194;-64
2022/06/14 08:26:25;;;;;;;7.60;6.95;;;;;;;37.54;42.09;99299.72;5110420;28;20195;-64
2022/06/14 08:28:59;;;;;;;6.75;6.32;;;;;;;36.88;40.58;99284.00;5110705;28;20195;-64
2022/06/14 08:31:33;;;;;;;8.27;7.47;;;;;;;37.03;41.13;99291.78;5110631;28;20589;-65
2022/06/14 08:34:10;;;;;;;7.38;6.68;;;;;;;37.79;40.68;99286.97;5110429;28;20280;-63
2022/06/14 08:36:45;;;;;;;9.13;8.43;;;;;;;37.63;39.78;99289.44;5110564;28;20285;-64
2022/06/14 08:39:18;;;;;;;8.73;7.72;;;;;;;37.22;40.58;99290.84;5111090;28;20230;-64
2022/06/14 08:42:00;;;;;;;7.63;7.00;;;;;;;37.35;40.03;99285.31;5114378;28;20281;-64
2022/06/14 08:44:35;;;;;;;8.30;7.63;;;;;;;37.29;39.66;99302.44;5114425;28;20198;-64
2022/06/14 08:47:23;;;;;;;7.28;6.80;;;;;;;36.66;41.08;99283.53;5114387;28;20277;-64
2022/06/14 08:49:59;;;;;;;7.50;6.90;;;;;;;36.17;40.23;99296.84;5114394;28;20593;-64
2022/06/14 08:53:15;;;;;;;12.52;11.40;;;;;;;35.44;42.31;99286.22;5113852;28;20202;-64
2022/06/14 08:56:08;;;;;;;10.32;9.32;;;;;;;35.38;43.98;99281.66;5030693;28;20306;-61
2022/06/14 08:59:08;;;;;;;7.20;6.60;;;;;;;35.06;43.32;99288.72;5031183;28;20675;-62
2022/06/14 09:01:55;;;;;;;7.80;7.32;;;;;;;35.02;43.80;99281.22;5109505;27;20233;-61
2022/06/14 09:05:00;;;;;;;6.97;6.38;;;;;;;35.28;41.77;99278.56;5113702;28;20198;-61
2022/06/14 09:08:01;;;;;;;7.35;6.88;;;;;;;35.52;41.70;99277.06;5113575;28;20240;-61
2022/06/14 09:10:47;;;;;;;8.23;7.60;;;;;;;35.61;43.10;99273.94;5113886;28;20194;-59
2022/06/14 09:13:52;;;;;;;7.57;6.95;;;;;;;35.63;42.96;99274.56;5113575;28;20914;-58
2022/06/14 09:16:44;;;;;;;11.57;6.43;;;;;;;35.36;40.18;99274.81;5113476;28;20195;-59
2022/06/14 09:19:25;;;;;;;7.45;6.50;;;;;;;34.82;42.35;99263.19;5110445;28;20195;-60
2022/06/14 09:22:10;;;;;;;6.13;5.80;;;;;;;34.68;43.27;99268.72;5113711;28;20202;-61
2022/06/14 09:24:58;;;;;;;8.50;6.53;;;;;;;34.29;42.58;99253.31;5113334;28;20198;-60
2022/06/14 09:28:05;;;;;;;6.38;5.90;;;;;;;33.95;43.95;99259.56;5113368;28;20194;-61
2022/06/14 09:31:01;;;;;;;6.03;5.70;;;;;;;34.32;44.93;99247.50;5065268;28;20208;-61
2022/06/14 09:33:58;;;;;;;6.90;6.50;;;;;;;34.58;43.90;99248.38;5113353;28;20580;-61
2022/06/14 09:36:57;;;;;;;6.65;6.10;;;;;;;34.26;43.16;99246.44;5111174;28;20209;-61
2022/06/14 09:39:47;;;;;;;9.77;6.15;;;;;;;33.80;44.60;99254.31;5101442;28;20203;-61
2022/06/14 09:42:34;;;;;;;7.10;6.50;;;;;;;33.43;46.17;99250.13;5092584;28;20277;-60
2022/06/14 09:45:27;;;;;;;6.07;5.40;;;;;;;33.63;44.82;99242.19;5105965;28;20213;-62
2022/06/14 09:48:14;;;;;;;6.85;6.40;;;;;;;33.60;45.19;99240.72;5111498;28;20220;-59
2022/06/14 09:51:16;;;;;;;6.72;6.22;;;;;;;33.88;45.14;99235.28;5112612;28;20198;-61
2022/06/14 09:54:24;;;;;;;8.02;6.93;;;;;;;34.33;43.49;99239.19;5112018;28;20608;-60
2022/06/14 09:57:10;;;;;;;8.75;6.60;;;;;;;34.22;44.34;99231.69;5109833;28;20222;-61
2022/06/14 10:00:07;;;;;;;6.75;6.22;;;;;;;34.18;42.96;99225.06;5110444;28;20218;-60
2022/06/14 10:02:49;;;;;;;6.65;6.18;;;;;;;34.12;43.90;99225.84;5110308;28;20195;-61
2022/06/14 10:05:36;;;;;;;7.50;7.00;;;;;;;34.17;44.89;99223.41;5110572;28;20217;-61
2022/06/14 10:08:28;;;;;;;7.15;6.55;;;;;;;34.38;43.45;99219.75;5108521;28;20217;-61
2022/06/14 10:11:15;;;;;;;5.53;5.10;;;;;;;34.76;41.96;99217.34;5110372;28;20194;-61
2022/06/14 10:14:06;;;;;;;9.95;6.45;;;;;;;34.77;43.25;99213.56;5110944;28;20191;-60
2022/06/14 10:17:00;;;;;;;6.05;5.60;;;;;;;34.99;41.82;99212.31;5109825;28;20195;-62
2022/06/14 10:19:54;;;;;;;6.78;6.28;;;;;;;34.55;42.27;99213.75;5108942;28;20660;-60
2022/06/14 10:22:31;;;;;;;7.80;6.78;;;;;;;34.14;43.81;99207.63;5108409;27;20187;-59
2022/06/14 10:25:10;;;;;;;7.22;6.35;;;;;;;33.72;43.56;99198.75;5110742;28;20205;-60
2022/06/14 10:30:48;;;;;;;6.72;6.25;;;;;;;33.49;45.55;99191.00;5109275;28;20194;-60
2022/06/14 10:33:42;;;;;;;6.70;6.03;;;;;;;33.39;46.06;99185.13;5109901;28;20194;-60
2022/06/14 10:36:36;;;;;;;6.88;6.28;;;;;;;33.36;45.38;99177.47;5105128;28;20738;-60
2022/06/14 10:39:34;;;;;;;9.85;6.40;;;;;;;33.28;45.53;99184.88;5108039;28;20194;-60
2022/06/14 10:42:11;;;;;;;7.10;6.50;;;;;;;33.32;45.10;99186.13;5108775;28;20198;-61
2022/06/14 10:44:44;;;;;;;6.85;6.30;;;;;;;33.38;46.10;99201.47;5111251;28;20194;-61
2022/06/14 10:47:22;;;;;;;6.03;5.63;;;;;;;33.28;47.15;99212.59;5111283;28;20190;-61
2022/06/14 10:50:13;;;;;;;9.95;5.25;;;;;;;32.88;46.21;99214.13;5109974;28;20191;-61
2022/06/14 10:53:07;;;;;;;6.25;4.82;;;;;;;32.79;46.52;99216.13;5111782;28;20266;-62
2022/06/14 10:56:14;;;;;;;5.00;4.50;;;;;;;32.51;46.00;99201.75;5111494;28;20234;-61
2022/06/14 10:59:24;;;;;;;7.18;4.38;;;;;;;31.88;47.09;99203.34;5111614;28;20190;-61
2022/06/14 11:01:58;;;;;;;10.25;4.93;;;;;;;31.47;48.47;99211.03;5111404;28;20218;-60
2022/06/14 11:04:33;;;;;;;5.97;4.88;;;;;;;30.99;48.53;99213.19;5110521;28;20286;-60
2022/06/14 11:07:30;;;;;;;5.43;5.10;;;;;;;30.80;46.44;99205.66;5111704;28;20259;-61
2022/06/14 11:10:30;;;;;;;7.65;7.03;;;;;;;30.62;46.91;99194.41;5111474;28;20194;-61
2022/06/14 11:13:08;;;;;;;7.10;5.18;;;;;;;30.54;47.71;99181.94;5111405;28;20191;-61
2022/06/14 11:15:44;;;;;;;10.63;5.43;;;;;;;30.54;47.86;99186.44;5111446;28;20190;-60
2022/06/14 11:18:52;;;;;;;6.50;5.07;;;;;;;30.49;44.33;99196.81;5111180;28;20195;-60
2022/06/14 11:21:35;;;;;;;4.75;4.15;;;;;;;30.42;45.12;99188.69;5048345;28;20418;-59
2022/06/14 11:24:15;;;;;;;4.93;4.40;;;;;;;30.42;45.55;99195.88;5108405;28;20282;-60
2022/06/14 11:26:55;;;;;;;4.50;4.20;;;;;;;30.49;47.03;99194.16;5111076;28;20728;-60
2022/06/14 11:29:30;;;;;;;4.97;4.50;;;;;;;30.46;47.18;99191.84;5110819;28;20198;-60
2022/06/14 11:32:04;;;;;;;11.18;5.25;;;;;;;30.51;48.50;99192.13;5110628;28;20200;-60
2022/06/14 11:34:46;;;;;;;8.88;5.55;;;;;;;30.63;47.75;99201.44;5110471;28;20709;-60
2022/06/14 11:37:33;;;;;;;7.15;5.63;;;;;;;30.62;46.17;99199.78;5108577;28;20198;-60
2022/06/14 11:40:05;;;;;;;5.82;5.47;;;;;;;30.70;46.85;99218.44;5109215;28;20198;-60
2022/06/14 11:42:36;;;;;;;5.93;5.43;;;;;;;30.69;48.04;99222.16;5110539;28;20303;-60
2022/06/14 11:45:20;;;;;;;12.73;5.20;;;;;;;30.07;52.66;99216.03;5109674;28;20236;-59
2022/06/14 11:47:57;;;;;;;8.85;5.28;;;;;;;29.85;54.67;99215.78;5108014;28;20255;-60
2022/06/14 11:50:34;;;;;;;6.05;5.13;;;;;;;29.63;56.60;99229.06;5110962;28;20730;-59
2022/06/14 11:53:20;;;;;;;5.88;5.10;;;;;;;29.36;58.90;99232.94;5110582;28;20204;-60
2022/06/14 11:55:54;;;;;;;6.32;4.93;;;;;;;29.34;59.26;99246.53;5110762;28;20305;-62
2022/06/14 11:58:32;;;;;;;9.82;4.70;;;;;;;29.23;58.12;99237.00;5110609;28;20209;-62
2022/06/14 12:01:15;;;;;;;8.63;4.85;;;;;;;29.11;58.03;99242.88;5110719;28;20217;-62
2022/06/14 12:04:05;;;;;;;6.07;4.15;;;;;;;29.10;53.98;99239.38;5110620;28;20198;-63
2022/06/14 12:06:43;;;;;;;6.72;4.00;;;;;;;29.07;50.52;99236.19;5110504;28;20195;-61
2022/06/14 12:09:46;;;;;;;6.75;3.60;;;;;;;29.20;49.23;99240.03;5110723;28;20597;-61
2022/06/14 12:12:23;;;;;;;4.18;3.88;;;;;;;29.24;51.49;99251.19;5107536;28;20197;-60
2022/06/14 12:15:06;;;;;;;5.05;3.85;;;;;;;29.18;51.54;99243.88;5108981;28;20221;-60
2022/06/14 12:17:42;;;;;;;4.45;4.15;;;;;;;29.09;52.67;99251.06;5112054;28;20273;-60
2022/06/14 12:20:11;;;;;;;4.35;4.05;;;;;;;29.24;54.28;99254.69;5114241;28;20193;-60
2022/06/14 12:22:45;;;;;;;7.30;4.38;;;;;;;29.11;57.43;99240.22;5114277;28;20591;-60
2022/06/14 12:28:09;;;;;;;7.55;5.88;;;;;;;29.22;59.27;99229.16;5114732;28;20194;-61